Airport View

Enter AWOS ICAO identifier for current METAR.

ex. KFNL

KOMN 262250Z 00000KT 3SM -RA OVC060 17/16 A2993

26 Feb 2020 23:21

Frequency: 118.475

Phone: 386-615-7084

Other Area AWOS: KDAB - KFIN - KDED - KEVB

TAF COR KDAB 262035Z 2618/2718 35006KT P6SM VCTS SCT025CB OVC035 TEMPO 2620/2622 2SM TSRA BKN025CB FM270000 29009KT P6SM SHRA BKN030 OVC070 FM270800 30009KT P6SM SCT035 OVC120 FM271100 31011KT P6SM SKC